createdAt,value
2019-05-19T00:01:25.505Z,54.83
2019-05-19T00:03:54.055Z,57.43
2019-05-19T00:06:22.537Z,55.70
2019-05-19T00:08:51.019Z,55.07
2019-05-19T00:11:19.586Z,52.93
2019-05-19T00:13:48.142Z,54.10
2019-05-19T00:16:16.703Z,52.97
2019-05-19T00:18:45.198Z,55.97
2019-05-19T00:21:13.679Z,55.60
2019-05-19T00:23:42.161Z,54.80
2019-05-19T00:26:12.197Z,55.83
2019-05-19T00:28:40.697Z,61.70
2019-05-19T00:31:09.205Z,57.77
2019-05-19T00:33:37.686Z,59.60
2019-05-19T00:36:06.162Z,58.77
2019-05-19T00:38:34.680Z,61.50
2019-05-19T00:41:03.174Z,59.13
2019-05-19T00:43:31.645Z,57.93
2019-05-19T00:46:00.153Z,60.20
2019-05-19T00:48:28.674Z,60.27
2019-05-19T00:50:57.221Z,60.40
2019-05-19T00:53:25.793Z,59.30
2019-05-19T00:55:54.467Z,60.73
2019-05-19T00:58:25.220Z,59.27
2019-05-19T01:00:53.730Z,63.00
2019-05-19T01:03:22.234Z,61.30
2019-05-19T01:05:50.822Z,59.93
2019-05-19T01:08:19.305Z,62.43
2019-05-19T01:10:48.063Z,64.60
2019-05-19T01:13:16.641Z,62.87
2019-05-19T01:15:45.146Z,61.73
2019-05-19T01:18:13.613Z,62.47
2019-05-19T01:20:42.525Z,63.63
2019-05-19T01:23:11.232Z,65.13
2019-05-19T01:25:39.734Z,66.37
2019-05-19T01:28:08.309Z,66.10
2019-05-19T01:30:36.951Z,68.10
2019-05-19T01:33:05.488Z,65.33
2019-05-19T01:35:33.993Z,64.90
2019-05-19T01:38:02.548Z,65.87
2019-05-19T01:40:31.053Z,66.37
2019-05-19T01:42:59.532Z,65.93
2019-05-19T01:45:28.004Z,65.10
2019-05-19T01:47:56.563Z,62.23
2019-05-19T01:50:25.119Z,65.53
2019-05-19T01:52:53.584Z,63.50
2019-05-19T01:55:22.096Z,68.27
2019-05-19T01:57:50.602Z,66.03
2019-05-19T02:00:19.295Z,65.63
2019-05-19T02:02:47.818Z,64.97
2019-05-19T02:05:16.550Z,63.47
2019-05-19T02:07:45.090Z,64.40
2019-05-19T02:10:13.803Z,64.07
2019-05-19T02:12:42.301Z,66.90
2019-05-19T02:15:11.313Z,65.40
2019-05-19T02:17:39.843Z,67.33
2019-05-19T02:20:08.660Z,66.27
2019-05-19T02:22:37.254Z,64.20
2019-05-19T02:25:06.260Z,66.97
2019-05-19T02:27:34.972Z,73.50
2019-05-19T02:30:05.113Z,66.37
2019-05-19T02:32:33.705Z,69.03
2019-05-19T02:35:02.195Z,70.00
2019-05-19T02:37:30.716Z,68.67
2019-05-19T02:39:59.201Z,67.80
2019-05-19T02:42:29.356Z,70.13
2019-05-19T02:44:59.636Z,67.47
2019-05-19T02:47:29.662Z,68.23
2019-05-19T02:50:00.039Z,75.33
2019-05-19T02:52:30.601Z,69.57
2019-05-19T02:55:01.103Z,73.27
2019-05-19T02:57:30.778Z,71.03
2019-05-19T02:59:59.830Z,70.73
2019-05-19T03:02:28.426Z,71.90
2019-05-19T03:04:56.934Z,69.27
2019-05-19T03:07:25.511Z,71.03
2019-05-19T03:09:53.998Z,70.20
2019-05-19T03:12:22.514Z,67.67
2019-05-19T03:14:50.994Z,75.73
2019-05-19T03:17:19.493Z,70.37
2019-05-19T03:19:48.049Z,70.03
2019-05-19T03:22:16.541Z,76.00
2019-05-19T03:24:45.140Z,69.53
2019-05-19T03:27:13.634Z,71.03
2019-05-19T03:29:46.245Z,75.03
2019-05-19T03:32:31.230Z,73.37
2019-05-19T03:34:59.776Z,68.97
2019-05-19T03:37:28.348Z,69.77
2019-05-19T03:39:56.917Z,72.43
2019-05-19T03:42:25.484Z,73.00
2019-05-19T03:44:53.972Z,72.40
2019-05-19T03:47:22.523Z,74.17
2019-05-19T03:49:51.115Z,70.57
2019-05-19T03:52:19.697Z,74.07
2019-05-19T03:54:48.241Z,71.50
2019-05-19T03:57:16.726Z,72.90
2019-05-19T03:59:45.305Z,75.17
2019-05-19T04:02:13.782Z,77.63
2019-05-19T04:04:42.349Z,77.80
2019-05-19T04:07:10.935Z,75.83
2019-05-19T04:09:39.491Z,75.70
2019-05-19T04:12:08.318Z,77.57
2019-05-19T04:14:36.904Z,78.03
2019-05-19T04:17:05.505Z,74.93
2019-05-19T04:19:34.081Z,78.90
2019-05-19T04:22:02.652Z,74.00
2019-05-19T04:24:31.218Z,79.53
2019-05-19T04:26:59.709Z,75.07
2019-05-19T04:29:28.202Z,79.80
2019-05-19T04:31:56.702Z,82.47
2019-05-19T04:34:25.197Z,73.13
2019-05-19T04:36:53.769Z,77.20
2019-05-19T04:39:22.340Z,78.90
2019-05-19T04:41:50.828Z,76.90
2019-05-19T04:44:19.394Z,78.87
2019-05-19T04:46:47.883Z,76.60
2019-05-19T04:49:16.452Z,83.10
2019-05-19T04:51:44.916Z,77.83
2019-05-19T04:54:13.431Z,75.77
2019-05-19T04:56:41.992Z,86.13
2019-05-19T04:59:10.565Z,78.70
2019-05-19T05:01:39.119Z,77.00
2019-05-19T05:04:07.706Z,78.03
2019-05-19T05:06:36.198Z,79.23
2019-05-19T05:09:07.300Z,79.10
2019-05-19T05:11:35.801Z,82.57
2019-05-19T05:14:04.439Z,80.53
2019-05-19T05:16:32.923Z,77.53
2019-05-19T05:19:01.489Z,81.03
2019-05-19T05:21:29.977Z,74.07
2019-05-19T05:23:58.566Z,74.53
2019-05-19T05:26:27.038Z,77.07
2019-05-19T05:28:55.625Z,75.37
2019-05-19T05:31:24.195Z,83.13
2019-05-19T05:33:52.681Z,74.00
2019-05-19T05:36:21.151Z,76.47
2019-05-19T05:38:49.653Z,76.63
2019-05-19T05:41:18.122Z,74.00
2019-05-19T05:43:46.611Z,73.90
2019-05-19T05:46:15.188Z,75.63
2019-05-19T05:48:43.711Z,74.87
2019-05-19T05:51:12.230Z,72.90
2019-05-19T05:53:40.787Z,74.47
2019-05-19T05:56:09.265Z,75.57
2019-05-19T05:58:37.719Z,72.33
2019-05-19T06:01:06.233Z,74.43
2019-05-19T06:03:34.790Z,75.13
2019-05-19T06:06:05.082Z,70.70
2019-05-19T06:08:33.726Z,70.77
2019-05-19T06:11:02.210Z,69.97
2019-05-19T06:13:30.683Z,68.77
2019-05-19T06:15:59.187Z,76.83
2019-05-19T06:18:27.709Z,70.77
2019-05-19T06:20:56.204Z,69.00
2019-05-19T06:23:24.765Z,72.13
2019-05-19T06:25:53.300Z,72.13
2019-05-19T06:28:21.863Z,73.33
2019-05-19T06:30:50.419Z,69.30
2019-05-19T06:33:18.945Z,72.17
2019-05-19T06:35:47.425Z,74.57
2019-05-19T06:38:15.985Z,72.97
2019-05-19T06:40:44.469Z,68.17
2019-05-19T06:43:12.985Z,71.07
2019-05-19T06:45:41.456Z,71.37
2019-05-19T06:48:10.115Z,73.97
2019-05-19T06:50:40.844Z,70.83
2019-05-19T06:53:13.878Z,73.20
2019-05-19T06:55:38.999Z,64.57
2019-05-19T06:58:07.524Z,69.07
2019-05-19T07:00:36.093Z,68.93
2019-05-19T07:03:04.608Z,66.73
2019-05-19T07:05:33.097Z,68.10
2019-05-19T07:08:01.660Z,66.17
2019-05-19T07:10:30.130Z,63.70
2019-05-19T07:12:58.613Z,72.13
2019-05-19T07:15:27.188Z,67.20
2019-05-19T07:17:55.668Z,66.27
2019-05-19T07:20:24.149Z,66.43
2019-05-19T07:22:52.712Z,66.63
2019-05-19T07:25:21.229Z,70.50
2019-05-19T07:27:49.791Z,68.53
2019-05-19T07:30:19.222Z,69.47
2019-05-19T07:32:47.756Z,66.10
2019-05-19T07:35:16.448Z,61.90
2019-05-19T07:37:44.934Z,65.27
2019-05-19T07:40:13.568Z,60.70
2019-05-19T07:42:42.059Z,68.50
2019-05-19T07:45:11.155Z,63.73
2019-05-19T07:47:39.733Z,62.00
2019-05-19T07:50:08.296Z,58.90
2019-05-19T07:52:36.869Z,61.60
2019-05-19T07:55:06.941Z,62.70
2019-05-19T07:57:35.452Z,58.57
2019-05-19T08:00:05.741Z,59.50
2019-05-19T08:02:34.326Z,54.60
2019-05-19T08:05:02.940Z,55.97
2019-05-19T08:07:31.444Z,59.17
2019-05-19T08:09:59.990Z,61.43
2019-05-19T08:12:28.464Z,57.90
2019-05-19T08:14:56.991Z,56.80
2019-05-19T08:17:26.085Z,55.17
2019-05-19T08:19:54.766Z,51.00
2019-05-19T08:22:25.178Z,55.33
2019-05-19T08:24:53.973Z,56.63
2019-05-19T08:27:22.549Z,50.97
2019-05-19T08:29:52.657Z,51.77
2019-05-19T08:32:21.310Z,54.17
2019-05-19T08:34:49.819Z,50.53
2019-05-19T08:37:18.297Z,47.83
2019-05-19T08:39:47.518Z,51.77
2019-05-19T08:42:17.095Z,50.10
2019-05-19T08:44:45.690Z,51.70
2019-05-19T08:47:14.238Z,50.40
2019-05-19T08:49:42.751Z,49.83
2019-05-19T08:52:11.368Z,47.07
2019-05-19T08:54:39.896Z,49.07
2019-05-19T08:57:08.379Z,49.83
2019-05-19T08:59:36.956Z,46.27
2019-05-19T09:02:05.455Z,45.33
2019-05-19T09:04:33.933Z,47.13
2019-05-19T09:07:02.516Z,47.17
2019-05-19T09:09:31.070Z,46.27
2019-05-19T09:11:59.627Z,44.43
2019-05-19T09:14:28.169Z,42.57
2019-05-19T09:16:56.744Z,43.43
2019-05-19T09:19:25.323Z,45.10
2019-05-19T09:21:53.876Z,44.40
2019-05-19T09:24:30.335Z,43.23
2019-05-19T09:26:52.717Z,41.23
2019-05-19T09:29:21.260Z,42.23
2019-05-19T09:31:49.771Z,43.33
2019-05-19T09:34:18.383Z,41.23
2019-05-19T09:36:47.001Z,42.47
2019-05-19T09:39:15.569Z,40.93
2019-05-19T09:41:44.149Z,43.20
2019-05-19T09:44:14.338Z,43.87
2019-05-19T09:46:42.889Z,42.40
2019-05-19T09:49:31.157Z,40.83
2019-05-19T09:52:00.165Z,43.03
2019-05-19T09:54:42.725Z,44.27
2019-05-19T09:57:00.431Z,39.03
2019-05-19T09:59:29.299Z,42.57
2019-05-19T10:01:57.955Z,41.37
2019-05-19T10:04:26.575Z,41.33
2019-05-19T10:06:55.180Z,42.67
2019-05-19T10:09:33.140Z,39.90
2019-05-19T10:12:03.700Z,39.93
2019-05-19T10:14:32.287Z,39.60
2019-05-19T10:17:00.928Z,41.60
2019-05-19T10:19:29.695Z,44.03
2019-05-19T10:21:58.286Z,42.07
2019-05-19T10:24:26.873Z,44.10
2019-05-19T10:26:56.999Z,37.50
2019-05-19T10:29:25.556Z,39.93
2019-05-19T10:31:54.572Z,40.73
2019-05-19T10:34:23.223Z,41.90
2019-05-19T10:36:51.826Z,42.83
2019-05-19T10:39:20.337Z,38.80
2019-05-19T10:41:48.835Z,36.73
2019-05-19T10:44:17.310Z,40.03
2019-05-19T10:46:46.367Z,42.77
2019-05-19T10:49:14.884Z,41.83
2019-05-19T10:51:43.432Z,37.90
2019-05-19T10:54:12.160Z,36.53
2019-05-19T10:56:40.667Z,38.37
2019-05-19T10:59:09.348Z,38.97
2019-05-19T11:01:37.916Z,36.97
2019-05-19T11:04:06.549Z,35.67
2019-05-19T11:06:35.028Z,36.83
2019-05-19T11:09:06.422Z,34.63
2019-05-19T11:11:35.286Z,36.63
2019-05-19T11:14:04.174Z,33.27
2019-05-19T11:16:33.231Z,34.07
2019-05-19T11:19:01.753Z,34.33
2019-05-19T11:21:31.176Z,35.13
2019-05-19T11:23:59.703Z,35.57
2019-05-19T11:26:28.191Z,35.33
2019-05-19T11:28:56.778Z,35.87
2019-05-19T11:31:25.335Z,35.87
2019-05-19T11:33:53.806Z,35.27
2019-05-19T11:36:22.356Z,35.60
2019-05-19T11:38:50.857Z,33.17
2019-05-19T11:41:19.817Z,32.67
2019-05-19T11:43:48.336Z,34.10
2019-05-19T11:46:16.916Z,34.23
2019-05-19T11:48:45.402Z,34.97
2019-05-19T11:51:13.893Z,36.10
2019-05-19T11:53:42.401Z,36.20
2019-05-19T11:56:11.752Z,37.13
2019-05-19T11:58:40.422Z,36.67
2019-05-19T12:01:08.938Z,39.27
2019-05-19T12:03:40.977Z,39.50
2019-05-19T12:06:09.268Z,36.73
2019-05-19T12:08:37.836Z,37.60
2019-05-19T12:11:06.402Z,38.17
2019-05-19T12:13:35.270Z,35.87
2019-05-19T12:16:04.291Z,38.67
2019-05-19T12:18:32.871Z,34.87
2019-05-19T12:21:01.396Z,35.03
2019-05-19T12:23:29.984Z,33.37
2019-05-19T12:25:58.665Z,36.43
2019-05-19T12:28:27.231Z,33.67
2019-05-19T12:30:55.771Z,35.43
2019-05-19T12:33:25.222Z,35.53
2019-05-19T12:35:53.800Z,37.67
2019-05-19T12:38:22.337Z,36.17
2019-05-19T12:40:50.908Z,40.30
2019-05-19T12:43:19.426Z,41.77
2019-05-19T12:45:48.767Z,39.37
2019-05-19T12:48:17.501Z,38.60
2019-05-19T12:50:46.097Z,40.37
2019-05-19T12:53:14.688Z,36.13
2019-05-19T12:55:43.240Z,37.30
2019-05-19T12:58:11.847Z,36.67
2019-05-19T13:00:40.429Z,36.13
2019-05-19T13:03:09.079Z,35.77
2019-05-19T13:05:37.599Z,36.63
2019-05-19T13:08:06.168Z,40.53
2019-05-19T13:10:34.751Z,39.00
2019-05-19T13:13:03.293Z,37.57
2019-05-19T13:15:31.782Z,35.50
2019-05-19T13:18:00.377Z,34.63
2019-05-19T13:20:28.958Z,36.13
2019-05-19T13:22:57.523Z,32.77
2019-05-19T13:25:26.066Z,34.60
2019-05-19T13:27:54.629Z,30.47
2019-05-19T13:30:23.202Z,28.53
2019-05-19T13:32:51.718Z,25.70
2019-05-19T13:35:20.363Z,28.90
2019-05-19T13:37:48.841Z,30.13
2019-05-19T13:40:17.436Z,31.83
2019-05-19T13:42:46.007Z,31.37
2019-05-19T13:45:15.941Z,30.40
2019-05-19T13:47:44.561Z,31.90
2019-05-19T13:50:13.277Z,30.50
2019-05-19T13:52:41.857Z,28.70
2019-05-19T13:55:11.735Z,29.53
2019-05-19T13:57:40.595Z,27.83
2019-05-19T14:00:09.908Z,28.73
2019-05-19T14:02:38.578Z,28.13
2019-05-19T14:05:07.648Z,26.40
2019-05-19T14:07:36.484Z,26.07
2019-05-19T14:10:06.882Z,28.73
2019-05-19T14:12:35.569Z,25.97
2019-05-19T14:15:06.262Z,26.80
2019-05-19T14:17:34.738Z,27.90
2019-05-19T14:20:05.261Z,29.00
2019-05-19T14:22:33.773Z,28.47
2019-05-19T14:25:02.269Z,28.03
2019-05-19T14:27:31.182Z,29.17
2019-05-19T14:29:59.790Z,26.73
2019-05-19T14:32:28.276Z,27.10
2019-05-19T14:34:56.778Z,27.43
2019-05-19T14:37:25.263Z,27.90
2019-05-19T14:39:53.763Z,28.77
2019-05-19T14:42:39.904Z,30.53
2019-05-19T14:45:08.998Z,32.93
2019-05-19T14:47:37.588Z,30.87
2019-05-19T14:50:06.912Z,37.50
2019-05-19T14:52:35.501Z,38.67
2019-05-19T14:55:04.050Z,36.03
2019-05-19T14:57:43.940Z,39.33
2019-05-19T15:00:03.221Z,37.60
2019-05-19T15:02:31.815Z,35.70
2019-05-19T15:05:00.364Z,37.67
2019-05-19T15:07:28.894Z,44.27
2019-05-19T15:09:57.456Z,41.70
2019-05-19T15:12:26.524Z,41.53
2019-05-19T15:14:55.024Z,43.70
2019-05-19T15:17:23.533Z,42.13
2019-05-19T15:19:52.049Z,40.83
2019-05-19T15:22:20.729Z,42.57
2019-05-19T15:24:49.222Z,43.17
2019-05-19T15:27:17.728Z,41.00
2019-05-19T15:29:46.319Z,43.70
2019-05-19T15:32:14.910Z,40.57
2019-05-19T15:34:43.466Z,35.67
2019-05-19T15:37:11.956Z,38.77
2019-05-19T15:39:40.555Z,35.73
2019-05-19T15:42:09.145Z,31.03
2019-05-19T15:44:37.715Z,26.03
2019-05-19T15:47:06.251Z,28.50
2019-05-19T15:49:35.198Z,32.20
2019-05-19T15:52:05.456Z,35.73
2019-05-19T15:54:34.064Z,38.57
2019-05-19T15:57:02.639Z,36.83
2019-05-19T15:59:31.231Z,39.60
2019-05-19T16:01:59.744Z,48.77
2019-05-19T16:04:28.318Z,45.57
2019-05-19T16:06:56.819Z,44.87
2019-05-19T16:09:25.357Z,45.97
2019-05-19T16:11:53.918Z,50.37
2019-05-19T16:14:22.455Z,47.07
2019-05-19T16:16:51.150Z,46.30
2019-05-19T16:19:19.728Z,47.80
2019-05-19T16:21:48.213Z,47.63
2019-05-19T16:24:16.783Z,55.97
2019-05-19T16:26:45.377Z,50.63
2019-05-19T16:29:13.874Z,48.03
2019-05-19T16:31:42.477Z,50.43
2019-05-19T16:34:11.028Z,52.57
2019-05-19T16:36:39.691Z,54.50
2019-05-19T16:39:08.459Z,53.93
2019-05-19T16:41:37.275Z,57.47
2019-05-19T16:44:05.879Z,58.30
2019-05-19T16:46:34.380Z,52.77
2019-05-19T16:49:03.343Z,55.63
2019-05-19T16:51:31.921Z,55.00
2019-05-19T16:54:05.260Z,56.20
2019-05-19T16:56:35.097Z,54.37
2019-05-19T16:59:03.749Z,54.43
2019-05-19T17:01:32.382Z,56.73
2019-05-19T17:04:00.936Z,57.80
2019-05-19T17:06:29.580Z,51.93
2019-05-19T17:08:58.091Z,54.77
2019-05-19T17:11:26.587Z,53.00
2019-05-19T17:13:55.067Z,55.37
2019-05-19T17:16:23.676Z,52.10
2019-05-19T17:18:52.247Z,54.87
2019-05-19T17:21:20.801Z,52.93
2019-05-19T17:23:49.385Z,57.10
2019-05-19T17:26:17.976Z,54.57
2019-05-19T17:28:59.742Z,50.43
2019-05-19T17:31:16.653Z,53.03
2019-05-19T17:33:45.240Z,54.60
2019-05-19T17:36:13.747Z,48.97
2019-05-19T17:38:42.233Z,49.10
2019-05-19T17:41:10.821Z,53.87
2019-05-19T17:43:39.679Z,51.00
2019-05-19T17:46:08.261Z,51.57
2019-05-19T17:48:36.959Z,51.97
2019-05-19T17:51:06.201Z,49.13
2019-05-19T17:53:34.872Z,47.83
2019-05-19T17:56:04.340Z,49.37
2019-05-19T17:58:33.926Z,51.60
2019-05-19T18:01:02.588Z,50.70
2019-05-19T18:03:31.912Z,48.87
2019-05-19T18:06:00.470Z,50.53
2019-05-19T18:08:30.449Z,48.50
2019-05-19T18:10:58.999Z,47.33
2019-05-19T18:13:27.997Z,51.50
2019-05-19T18:15:56.553Z,48.40
2019-05-19T18:18:25.140Z,53.20
2019-05-19T18:20:53.708Z,48.40
2019-05-19T18:23:22.261Z,48.50
2019-05-19T18:25:50.834Z,49.23
2019-05-19T18:28:19.401Z,49.57
2019-05-19T18:30:47.988Z,49.70
2019-05-19T18:33:16.598Z,54.97
2019-05-19T18:35:45.258Z,51.70
2019-05-19T18:38:13.830Z,48.13
2019-05-19T18:40:42.364Z,48.53
2019-05-19T18:43:10.904Z,47.00
2019-05-19T18:45:39.798Z,48.23
2019-05-19T18:48:08.366Z,50.17
2019-05-19T18:50:36.980Z,52.13
2019-05-19T18:53:05.565Z,54.90
2019-05-19T18:55:34.138Z,49.50
2019-05-19T18:58:02.735Z,54.17
2019-05-19T19:00:34.310Z,52.73
2019-05-19T19:03:03.200Z,53.97
2019-05-19T19:05:33.306Z,54.57
2019-05-19T19:08:02.103Z,55.60
2019-05-19T19:10:31.478Z,51.63
2019-05-19T19:13:00.070Z,51.17
2019-05-19T19:15:28.582Z,50.70
2019-05-19T19:17:57.170Z,53.63
2019-05-19T19:20:26.034Z,53.17
2019-05-19T19:22:54.612Z,51.57
2019-05-19T19:25:23.257Z,50.93
2019-05-19T19:27:51.847Z,52.83
2019-05-19T19:30:20.605Z,53.63
2019-05-19T19:32:49.239Z,53.03
2019-05-19T19:35:17.968Z,52.70
2019-05-19T19:37:46.931Z,55.33
2019-05-19T19:40:18.536Z,51.57
2019-05-19T19:42:47.083Z,49.27
2019-05-19T19:45:15.711Z,52.43
2019-05-19T19:47:44.273Z,51.33
2019-05-19T19:50:12.850Z,53.33
2019-05-19T19:52:41.566Z,55.70
2019-05-19T19:55:10.827Z,49.33
2019-05-19T19:57:39.327Z,48.10
2019-05-19T20:00:18.020Z,45.53
2019-05-19T20:02:38.212Z,43.03
2019-05-19T20:05:06.851Z,43.17
2019-05-19T20:07:35.436Z,42.07
2019-05-19T20:10:06.071Z,42.20
2019-05-19T20:12:34.724Z,43.63
2019-05-19T20:15:03.289Z,38.43
2019-05-19T20:17:31.899Z,40.53
2019-05-19T20:20:00.749Z,40.47
2019-05-19T20:22:29.238Z,41.70
2019-05-19T20:24:57.829Z,41.20
2019-05-19T20:27:26.468Z,37.60
2019-05-19T20:29:55.023Z,38.07
2019-05-19T20:32:24.570Z,36.27
2019-05-19T20:34:55.251Z,39.73
2019-05-19T20:37:23.808Z,34.80
2019-05-19T20:39:52.453Z,37.80
2019-05-19T20:42:20.988Z,38.57
2019-05-19T20:44:49.487Z,36.67
2019-05-19T20:47:18.102Z,38.57
2019-05-19T20:52:37.153Z,39.40
2019-05-19T20:55:06.858Z,36.23
2019-05-19T20:57:35.341Z,42.33
2019-05-19T21:00:06.054Z,37.60
2019-05-19T21:02:34.865Z,37.23
2019-05-19T21:05:03.345Z,39.77
2019-05-19T21:07:31.938Z,37.17
2019-05-19T21:10:00.523Z,36.93
2019-05-19T21:12:29.082Z,33.80
2019-05-19T21:14:57.596Z,38.20
2019-05-19T21:17:26.186Z,36.80
2019-05-19T21:19:55.747Z,38.40
2019-05-19T21:22:24.348Z,38.17
2019-05-19T21:24:53.013Z,36.53
2019-05-19T21:27:21.562Z,39.53
2019-05-19T21:29:50.085Z,36.50
2019-05-19T21:32:18.608Z,37.83
2019-05-19T21:34:47.248Z,35.50
2019-05-19T21:37:15.826Z,37.03
2019-05-19T21:39:44.379Z,37.23
2019-05-19T21:42:12.902Z,33.33
2019-05-19T21:44:41.457Z,35.67
2019-05-19T21:47:10.108Z,37.10
2019-05-19T21:49:38.684Z,34.03
2019-05-19T21:52:07.292Z,37.93
2019-05-19T21:54:35.792Z,41.33
2019-05-19T21:57:04.297Z,36.50
2019-05-19T21:59:32.870Z,41.67
2019-05-19T22:02:01.558Z,36.83
2019-05-19T22:04:30.256Z,43.17
2019-05-19T22:07:00.422Z,37.53
2019-05-19T22:09:29.001Z,40.90
2019-05-19T22:11:57.517Z,44.23
2019-05-19T22:14:26.043Z,44.90
2019-05-19T22:16:54.602Z,42.37
2019-05-19T22:19:23.140Z,43.13
2019-05-19T22:21:51.698Z,43.90
2019-05-19T22:24:20.265Z,40.17
2019-05-19T22:26:48.857Z,41.17
2019-05-19T22:29:17.408Z,43.23
2019-05-19T22:31:46.000Z,41.87
2019-05-19T22:34:14.548Z,36.13
2019-05-19T22:36:43.122Z,39.93
2019-05-19T22:39:11.733Z,40.00
2019-05-19T22:41:40.236Z,34.97
2019-05-19T22:44:08.845Z,34.83
2019-05-19T22:46:37.382Z,36.30
2019-05-19T22:49:05.868Z,32.97
2019-05-19T22:51:34.445Z,35.03
2019-05-19T22:54:02.937Z,33.17
2019-05-19T22:56:31.485Z,35.30
2019-05-19T22:59:00.097Z,36.67
2019-05-19T23:01:28.672Z,32.00
2019-05-19T23:03:57.162Z,34.50
2019-05-19T23:06:25.757Z,37.17
2019-05-19T23:08:54.338Z,31.97
2019-05-19T23:11:22.915Z,36.93
2019-05-19T23:13:51.470Z,35.07
2019-05-19T23:16:20.016Z,36.60
2019-05-19T23:18:48.608Z,36.37
2019-05-19T23:21:17.176Z,45.17
2019-05-19T23:23:45.744Z,40.97
2019-05-19T23:26:14.325Z,33.63
2019-05-19T23:28:42.817Z,36.00
2019-05-19T23:31:11.458Z,37.77
2019-05-19T23:33:40.026Z,38.20
2019-05-19T23:36:08.585Z,36.93
2019-05-19T23:38:37.158Z,34.33
2019-05-19T23:41:05.712Z,40.40
2019-05-19T23:43:34.228Z,37.97
2019-05-19T23:46:02.821Z,34.00
2019-05-19T23:48:31.392Z,35.17
2019-05-19T23:50:59.866Z,37.30
2019-05-19T23:53:28.415Z,37.90
2019-05-19T23:55:56.931Z,35.13
2019-05-19T23:58:25.538Z,31.93
